SoundGuardian — WDI8675 — position and weather

sailwx.info

Track history (hours):
 
Tides and Currents Weather Stations Pressure Air Temp Water Temp Dewpoint Dewpoint Depression Visibility Wind Speed Wind Dir Waves Ship Positions

Oceanographic research ship SoundGuardian (United States)

Owner: King County Environmental Laboratory, Seattle, WA. More information available from US FCC via Universal Licensing System and Coast Guard Vessel Documentation Center.

Last reported at 2019-Aug-20 22:17 UTC. Time now 2019-Aug-24 22:50 UTC.
Position N 47°39' W 122°22'.

Length 13 m; draft 1 m.

Type: Other ship. MMSI: 367741020.

Date/timePositionNaut miles runAvg speedWind from/ knotsBaromVisibWave heightAir tempDewpointWater temp
2019-Aug-20 22:17N 47°39' W 122°22'1 4.7
2019-Aug-20 22:00N 47°40' W 122°23'1 1.3
2019-Aug-20 21:30N 47°40' W 122°24'4 7.4
2019-Aug-20 21:01N 47°36' W 122°26'1121.1
2019-Aug-20 20:30N 47°26' W 122°22'4 8.2
2019-Aug-20 19:58N 47°22' W 122°23'0 0.0
2019-Aug-20 19:29N 47°22' W 122°23'612.7
2019-Aug-20 19:00N 47°27' W 122°26'4 8.7
2019-Aug-20 18:30N 47°32' W 122°26'1 1.0
2019-Aug-20 18:00N 47°32' W 122°26'0 0.1
2019-Aug-20 17:30N 47°32' W 122°26'2 3.1
2019-Aug-20 17:01N 47°32' W 122°24'1 1.5
2019-Aug-20 16:30N 47°32' W 122°24'0 0.0
2019-Aug-20 16:00N 47°32' W 122°24'2 4.3
2019-Aug-20 15:30N 47°34' W 122°25'2 3.7
2019-Aug-20 15:00N 47°36' W 122°26'3 7.0
2019-Aug-20 14:30N 47°39' W 122°26'2 4.6
2019-Aug-20 14:00N 47°40' W 122°23'1 0.1
2019-Aug-19 22:15N 47°39' W 122°22'0 0.3
2019-Aug-19 22:00N 47°39' W 122°22'2 3.8
2019-Aug-19 21:30N 47°40' W 122°24'611.0
2019-Aug-19 21:00N 47°35' W 122°22'3 6.4
2019-Aug-19 20:30N 47°32' W 122°19'2 3.7
2019-Aug-19 19:57N 47°34' W 122°21'1 2.9
2019-Aug-19 19:30N 47°35' W 122°21'1 2.4
2019-Aug-19 19:00N 47°36' W 122°21'1 1.6
2019-Aug-19 18:31N 47°37' W 122°22'4 8.8
2019-Aug-19 18:00N 47°40' W 122°27'4 8.9
2019-Aug-19 17:30N 47°44' W 122°25'3 5.1
2019-Aug-19 17:00N 47°47' W 122°25'2 4.2
2019-Aug-19 16:30N 47°45' W 122°26'0 0.2
2019-Aug-19 16:00N 47°45' W 122°26'0 0.2
2019-Aug-19 15:30N 47°45' W 122°26'3 6.6
2019-Aug-19 15:00N 47°41' W 122°25'2 3.4
2019-Aug-19 14:30N 47°40' W 122°24'1 2.8
2019-Aug-19 14:01N 47°39' W 122°22'  
2019-Aug-12 21:12N 47°39' W 122°22'1 4.1
2019-Aug-12 21:00N 47°39' W 122°21'0 0.0
2019-Aug-12 20:31N 47°39' W 122°21'2 4.5
2019-Aug-12 20:01N 47°39' W 122°17'6 7.2
2019-Aug-12 19:15N 47°35' W 122°12'0 0.0
2019-Aug-12 18:57N 47°35' W 122°12'4 4.8
2019-Aug-12 18:08N 47°31' W 122°13'320.1
2019-Aug-12 18:00N 47°34' W 122°14'5 9.7
2019-Aug-12 17:31N 47°38' W 122°16'2 4.2
2019-Aug-12 17:00N 47°40' W 122°15'1 2.6
2019-Aug-12 16:31N 47°41' W 122°14'3 6.1
2019-Aug-12 16:00N 47°39' W 122°17'2 4.3
2019-Aug-12 15:30N 47°39' W 122°20'0 1.0
2019-Aug-12 15:00N 47°38' W 122°20'3 5.8
2019-Aug-12 14:30N 47°40' W 122°24'2 3.1
2019-Aug-12 14:00N 47°39' W 122°22'  
Track history (hours):
 
Tides and Currents Weather Stations Pressure Air Temp Water Temp Dewpoint Dewpoint Depression Visibility Wind Speed Wind Dir Waves Ship Positions

Oceanographic research ship SoundGuardian (United States)

Owner: King County Environmental Laboratory, Seattle, WA. More information available from US FCC via Universal Licensing System and Coast Guard Vessel Documentation Center.

Last reported at 2019-Aug-20 22:17 UTC. Time now 2019-Aug-24 22:50 UTC.
Position N 47°39' W 122°22'.

Length 13 m; draft 1 m.

Type: Other ship. MMSI: 367741020.

Date/timePositionNaut miles runAvg speedWind from/ knotsBaromVisibWave heightAir tempDewpointWater temp
2019-Aug-20 22:17N 47°39' W 122°22'1 4.7
2019-Aug-20 22:00N 47°40' W 122°23'1 1.3
2019-Aug-20 21:30N 47°40' W 122°24'4 7.4
2019-Aug-20 21:01N 47°36' W 122°26'1121.1
2019-Aug-20 20:30N 47°26' W 122°22'4 8.2
2019-Aug-20 19:58N 47°22' W 122°23'0 0.0
2019-Aug-20 19:29N 47°22' W 122°23'612.7
2019-Aug-20 19:00N 47°27' W 122°26'4 8.7
2019-Aug-20 18:30N 47°32' W 122°26'1 1.0
2019-Aug-20 18:00N 47°32' W 122°26'0 0.1
2019-Aug-20 17:30N 47°32' W 122°26'2 3.1
2019-Aug-20 17:01N 47°32' W 122°24'1 1.5
2019-Aug-20 16:30N 47°32' W 122°24'0 0.0
2019-Aug-20 16:00N 47°32' W 122°24'2 4.3
2019-Aug-20 15:30N 47°34' W 122°25'2 3.7
2019-Aug-20 15:00N 47°36' W 122°26'3 7.0
2019-Aug-20 14:30N 47°39' W 122°26'2 4.6
2019-Aug-20 14:00N 47°40' W 122°23'1 0.1
2019-Aug-19 22:15N 47°39' W 122°22'0 0.3
2019-Aug-19 22:00N 47°39' W 122°22'2 3.8
2019-Aug-19 21:30N 47°40' W 122°24'611.0
2019-Aug-19 21:00N 47°35' W 122°22'3 6.4
2019-Aug-19 20:30N 47°32' W 122°19'2 3.7
2019-Aug-19 19:57N 47°34' W 122°21'1 2.9
2019-Aug-19 19:30N 47°35' W 122°21'1 2.4
2019-Aug-19 19:00N 47°36' W 122°21'1 1.6
2019-Aug-19 18:31N 47°37' W 122°22'4 8.8
2019-Aug-19 18:00N 47°40' W 122°27'4 8.9
2019-Aug-19 17:30N 47°44' W 122°25'3 5.1
2019-Aug-19 17:00N 47°47' W 122°25'2 4.2
2019-Aug-19 16:30N 47°45' W 122°26'0 0.2
2019-Aug-19 16:00N 47°45' W 122°26'0 0.2
2019-Aug-19 15:30N 47°45' W 122°26'3 6.6
2019-Aug-19 15:00N 47°41' W 122°25'2 3.4
2019-Aug-19 14:30N 47°40' W 122°24'1 2.8
2019-Aug-19 14:01N 47°39' W 122°22'  
2019-Aug-12 21:12N 47°39' W 122°22'1 4.1
2019-Aug-12 21:00N 47°39' W 122°21'0 0.0
2019-Aug-12 20:31N 47°39' W 122°21'2 4.5
2019-Aug-12 20:01N 47°39' W 122°17'6 7.2
2019-Aug-12 19:15N 47°35' W 122°12'0 0.0
2019-Aug-12 18:57N 47°35' W 122°12'4 4.8
2019-Aug-12 18:08N 47°31' W 122°13'320.1
2019-Aug-12 18:00N 47°34' W 122°14'5 9.7
2019-Aug-12 17:31N 47°38' W 122°16'2 4.2
2019-Aug-12 17:00N 47°40' W 122°15'1 2.6
2019-Aug-12 16:31N 47°41' W 122°14'3 6.1
2019-Aug-12 16:00N 47°39' W 122°17'2 4.3
2019-Aug-12 15:30N 47°39' W 122°20'0 1.0
2019-Aug-12 15:00N 47°38' W 122°20'3 5.8
2019-Aug-12 14:30N 47°40' W 122°24'2 3.1
2019-Aug-12 14:00N 47°39' W 122°22'  

Dump ship's entire track history